Time;durP1;ratioP1;P1;durP2;ratioP2;P2;SDS_P1;SDS_P2;PMS_P1;PMS_P2;Temp;Humidity;BMP_temperature;BMP_pressure;BME280_temperature;BME280_humidity;BME280_pressure;Samples;Min_cycle;Max_cycle;Signal;HPM_P1;HPM_P2
2021/11/20 00:01:54;;;;;;;22.93;11.70;;;9.60;1.00;;;;;;5012856;28;20762;-74
2021/11/20 00:04:20;;;;;;;20.60;12.03;;;9.60;1.00;;;;;;5013993;28;20498;-73
2021/11/20 00:06:56;;;;;;;26.10;13.30;;;9.60;1.00;;;;;;5013614;28;20451;-75
2021/11/20 00:09:24;;;;;;;27.10;11.90;;;9.60;1.00;;;;;;5002692;28;20412;-74
2021/11/20 00:11:52;;;;;;;25.30;11.93;;;9.60;1.00;;;;;;5013150;28;20428;-74
2021/11/20 00:14:20;;;;;;;26.43;11.43;;;9.70;1.00;;;;;;5012985;28;20439;-74
2021/11/20 00:16:48;;;;;;;36.37;12.30;;;9.70;1.00;;;;;;5011405;28;20439;-74
2021/11/20 00:19:15;;;;;;;19.20;10.50;;;9.60;1.00;;;;;;5011452;28;20444;-74
2021/11/20 00:21:48;;;;;;;28.17;12.40;;;9.60;1.00;;;;;;5005513;28;20429;-74
2021/11/20 00:24:21;;;;;;;23.33;12.17;;;9.50;1.00;;;;;;5013795;28;20422;-74
2021/11/20 00:26:48;;;;;;;29.47;11.80;;;9.50;1.00;;;;;;5014198;28;20411;-74
2021/11/20 00:35:06;;;;;;;27.40;13.00;;;9.50;1.00;;;;;;5012412;28;20419;-76
2021/11/20 00:37:38;;;;;;;27.13;13.00;;;9.50;1.00;;;;;;5014124;28;20447;-76
2021/11/20 00:40:10;;;;;;;26.47;11.80;;;9.50;1.00;;;;;;5010922;28;20448;-76
2021/11/20 00:42:47;;;;;;;24.90;11.87;;;9.50;1.00;;;;;;5012756;28;20477;-76
2021/11/20 00:45:18;;;;;;;26.90;11.43;;;9.50;1.00;;;;;;5009009;28;20423;-77
2021/11/20 00:47:44;;;;;;;23.17;12.37;;;9.50;1.00;;;;;;5001482;28;20479;-74
2021/11/20 00:50:14;;;;;;;23.40;12.27;;;9.50;1.00;;;;;;5011725;28;20801;-75
2021/11/20 00:52:54;;;;;;;28.70;12.90;;;9.50;1.00;;;;;;5013785;28;20424;-73
2021/11/20 00:55:27;;;;;;;38.33;14.77;;;9.50;1.00;;;;;;5015177;28;20792;-74
2021/11/20 00:57:54;;;;;;;27.37;13.40;;;9.50;1.00;;;;;;5008217;28;20888;-73
2021/11/20 01:00:26;;;;;;;28.77;13.43;;;9.50;1.00;;;;;;5010605;28;20431;-73
2021/11/20 01:02:52;;;;;;;28.93;12.43;;;9.50;1.00;;;;;;5001835;28;20845;-73
2021/11/20 01:05:24;;;;;;;25.37;13.17;;;9.50;1.00;;;;;;5008966;28;20470;-74
2021/11/20 01:07:51;;;;;;;26.40;12.50;;;9.50;1.00;;;;;;5012141;28;20193;-74
2021/11/20 01:10:21;;;;;;;27.70;13.17;;;9.50;1.00;;;;;;5003808;28;20527;-74
2021/11/20 01:12:47;;;;;;;25.00;12.47;;;9.70;1.00;;;;;;5008711;28;20427;-73
2021/11/20 01:15:28;;;;;;;24.87;12.40;;;9.40;1.00;;;;;;5010071;28;20412;-74
2021/11/20 01:17:54;;;;;;;26.63;13.20;;;9.50;1.00;;;;;;5002365;28;20211;-73
2021/11/20 01:20:20;;;;;;;27.73;13.13;;;9.40;1.00;;;;;;5011688;28;20439;-74
2021/11/20 01:22:46;;;;;;;22.47;12.50;;;9.50;1.00;;;;;;5013239;28;20442;-74
2021/11/20 01:25:13;;;;;;;28.53;12.43;;;9.40;1.00;;;;;;5013249;28;20506;-74
2021/11/20 01:27:42;;;;;;;22.20;12.20;;;9.50;1.00;;;;;;5013464;28;20803;-73
2021/11/20 01:30:13;;;;;;;33.33;14.07;;;9.50;1.00;;;;;;5011179;28;21137;-74
2021/11/20 01:32:54;;;;;;;25.40;13.47;;;9.50;1.00;;;;;;5008738;28;20424;-74
2021/11/20 01:35:21;;;;;;;29.23;12.10;;;9.50;1.00;;;;;;5012785;28;20423;-74
2021/11/20 01:37:46;;;;;;;22.27;11.90;;;9.50;1.00;;;;;;5001742;28;20872;-73
2021/11/20 01:40:34;;;;;;;25.03;13.20;;;9.50;1.00;;;;;;4998410;28;20416;-74
2021/11/20 01:43:01;;;;;;;26.60;12.13;;;9.50;1.00;;;;;;5012961;28;20200;-74
2021/11/20 01:45:37;;;;;;;22.00;12.20;;;9.50;1.00;;;;;;5005858;28;20421;-74
2021/11/20 01:48:35;;;;;;;24.50;12.27;;;9.50;1.00;;;;;;5007673;28;21191;-74
2021/11/20 01:51:21;;;;;;;24.30;11.57;;;9.50;1.00;;;;;;5003663;28;20405;-74
2021/11/20 01:54:09;;;;;;;26.43;12.60;;;9.60;1.00;;;;;;5009179;28;20427;-74
2021/11/20 01:56:59;;;;;;;25.13;12.73;;;9.50;1.00;;;;;;5026004;28;20780;-74
2021/11/20 01:59:37;;;;;;;25.07;13.40;;;9.60;1.00;;;;;;5013221;28;20899;-74
2021/11/20 02:02:27;;;;;;;29.43;13.70;;;9.60;1.00;;;;;;5016402;28;20399;-74
2021/11/20 02:05:05;;;;;;;27.53;13.80;;;9.60;1.00;;;;;;5006373;28;20736;-74
2021/11/20 02:07:54;;;;;;;27.70;13.40;;;9.60;1.00;;;;;;5016701;28;20455;-74
2021/11/20 02:10:41;;;;;;;31.93;13.80;;;9.50;1.00;;;;;;5013751;28;20411;-74
2021/11/20 02:13:11;;;;;;;26.83;13.77;;;;;;;;;;5016620;28;20424;-74
2021/11/20 02:15:47;;;;;;;25.10;13.00;;;9.50;1.00;;;;;;5015235;28;20949;-74
2021/11/20 02:18:21;;;;;;;30.30;12.83;;;9.50;1.00;;;;;;5017069;28;20949;-74
2021/11/20 02:20:53;;;;;;;31.60;14.03;;;9.60;1.00;;;;;;5016858;28;20477;-74
2021/11/20 02:23:19;;;;;;;29.20;14.53;;;9.50;1.00;;;;;;5001041;28;20770;-74
2021/11/20 02:25:49;;;;;;;27.50;14.30;;;9.50;1.00;;;;;;5010239;28;20427;-74
2021/11/20 02:28:18;;;;;;;30.60;13.50;;;9.50;1.00;;;;;;5016480;28;20196;-74
2021/11/20 02:30:49;;;;;;;26.20;14.10;;;9.50;1.00;;;;;;5016491;28;20523;-73
2021/11/20 02:33:24;;;;;;;32.73;14.07;;;9.60;1.00;;;;;;5015919;28;20426;-74
2021/11/20 02:36:01;;;;;;;32.57;14.47;;;9.60;1.00;;;;;;5016005;28;20423;-74
2021/11/20 02:38:42;;;;;;;28.87;13.83;;;9.60;1.00;;;;;;5015942;28;20416;-74
2021/11/20 02:41:16;;;;;;;31.20;13.70;;;9.60;1.00;;;;;;5009543;28;20427;-74
2021/11/20 02:43:46;;;;;;;26.47;13.10;;;9.60;1.00;;;;;;5010217;28;21012;-74
2021/11/20 02:46:21;;;;;;;26.20;13.90;;;9.60;1.00;;;;;;5016086;28;20423;-74
2021/11/20 02:48:48;;;;;;;34.37;13.37;;;9.60;1.00;;;;;;5016482;28;20483;-74
2021/11/20 02:51:20;;;;;;;29.30;13.33;;;9.60;1.00;;;;;;5016208;28;20424;-75
2021/11/20 02:53:58;;;;;;;32.13;13.77;;;9.60;1.00;;;;;;5015303;28;20432;-73
2021/11/20 02:56:32;;;;;;;31.83;13.90;;;9.50;1.00;;;;;;5004141;28;20953;-74
2021/11/20 02:59:00;;;;;;;35.23;14.03;;;9.50;1.00;;;;;;5015509;28;20420;-74
2021/11/20 03:01:49;;;;;;;32.30;14.00;;;9.60;1.00;;;;;;5015771;28;20941;-75
2021/11/20 03:04:24;;;;;;;24.73;13.33;;;9.60;1.00;;;;;;5014607;28;20498;-74
2021/11/20 03:06:52;;;;;;;31.77;13.13;;;9.60;1.00;;;;;;5013189;28;20438;-74
2021/11/20 03:09:28;;;;;;;25.37;12.60;;;9.60;1.00;;;;;;5011379;28;20736;-74
2021/11/20 03:11:55;;;;;;;26.30;14.30;;;9.60;1.00;;;;;;5014337;28;20603;-74
2021/11/20 03:14:22;;;;;;;26.63;12.83;;;9.60;1.00;;;;;;5013396;28;20502;-74
2021/11/20 03:16:56;;;;;;;23.43;13.20;;;9.60;1.00;;;;;;5009686;28;20973;-74
2021/11/20 03:19:24;;;;;;;27.90;13.00;;;9.50;1.00;;;;;;5015498;28;20443;-76
2021/11/20 03:22:13;;;;;;;38.03;15.00;;;9.50;1.00;;;;;;5011416;28;20507;-76
2021/11/20 03:24:49;;;;;;;29.60;13.60;;;9.50;1.00;;;;;;5014197;28;20428;-77
2021/11/20 03:31:29;;;;;;;25.90;13.53;;;9.50;1.00;;;;;;5008762;28;20383;-77
2021/11/20 03:34:24;;;;;;;26.17;13.60;;;9.50;1.00;;;;;;5014985;28;20486;-76
2021/11/20 03:36:51;;;;;;;24.13;12.87;;;9.50;1.00;;;;;;5009270;28;20427;-76
2021/11/20 03:39:16;;;;;;;33.17;14.33;;;9.50;1.00;;;;;;5014828;28;20419;-76
2021/11/20 03:42:11;;;;;;;27.60;13.30;;;9.40;1.00;;;;;;5015030;28;20816;-76
2021/11/20 03:44:42;;;;;;;32.30;13.10;;;9.40;1.00;;;;;;5007505;28;20237;-76
2021/11/20 03:47:37;;;;;;;36.43;15.07;;;9.40;1.00;;;;;;5012103;28;20453;-76
2021/11/20 03:50:53;;;;;;;29.37;13.73;;;9.40;1.00;;;;;;5012081;28;20515;-76
2021/11/20 03:54:05;;;;;;;35.50;14.43;;;9.40;1.00;;;;;;5005806;28;20415;-76
2021/11/20 03:56:32;;;;;;;27.03;13.50;;;9.40;1.00;;;;;;5009922;28;20416;-76
2021/11/20 03:59:18;;;;;;;31.80;14.53;;;9.40;1.00;;;;;;5013305;28;20447;-76
2021/11/20 04:01:54;;;;;;;41.83;15.90;;;9.40;1.00;;;;;;5014731;28;20423;-77
2021/11/20 04:04:19;;;;;;;30.90;14.37;;;9.40;1.00;;;;;;5010408;28;20420;-74
2021/11/20 04:06:54;;;;;;;32.07;14.23;;;9.40;1.00;;;;;;5014531;28;20423;-74
2021/11/20 04:09:25;;;;;;;36.53;14.57;;;9.40;1.00;;;;;;5014626;28;20195;-74
2021/11/20 04:11:51;;;;;;;26.57;14.13;;;9.40;1.00;;;;;;5014538;28;20910;-74
2021/11/20 04:14:19;;;;;;;27.27;13.43;;;9.40;1.00;;;;;;5003832;28;20448;-74
2021/11/20 04:16:48;;;;;;;29.30;15.00;;;9.40;1.00;;;;;;5004909;28;20425;-74
2021/11/20 04:22:37;;;;;;;28.23;13.80;;;9.40;1.00;;;;;;5008029;28;20411;-76
2021/11/20 04:28:30;;;;;;;30.07;13.70;;;9.40;1.00;;;;;;5010549;28;20438;-76
2021/11/20 04:30:55;;;;;;;29.00;13.83;;;9.30;1.00;;;;;;5013210;28;20474;-75
2021/11/20 04:33:36;;;;;;;31.50;13.40;;;9.40;1.00;;;;;;5008608;28;20925;-75
2021/11/20 04:36:12;;;;;;;26.23;13.60;;;9.40;1.00;;;;;;5013780;28;20250;-73
2021/11/20 04:38:38;;;;;;;41.13;13.87;;;9.30;1.00;;;;;;5007465;28;20460;-73
2021/11/20 04:41:13;;;;;;;31.37;14.90;;;9.40;1.00;;;;;;5013891;28;20762;-73
2021/11/20 04:43:48;;;;;;;31.43;14.13;;;9.40;1.00;;;;;;5013749;28;20420;-73
2021/11/20 04:46:30;;;;;;;29.73;13.87;;;9.30;1.00;;;;;;5013477;28;20765;-73
2021/11/20 04:49:00;;;;;;;37.43;15.37;;;9.40;1.00;;;;;;5014359;28;20577;-73
2021/11/20 04:51:31;;;;;;;27.80;14.13;;;9.30;1.00;;;;;;5011156;28;20494;-73
2021/11/20 04:53:57;;;;;;;24.43;13.63;;;9.40;1.00;;;;;;5005463;28;20554;-74
2021/11/20 04:56:26;;;;;;;32.67;14.63;;;9.40;1.00;;;;;;5013462;28;20881;-73
2021/11/20 04:58:53;;;;;;;29.87;14.40;;;9.40;1.00;;;;;;5013443;28;20420;-72
2021/11/20 05:01:20;;;;;;;32.00;14.30;;;;;;;;;;5013557;28;20771;-70
2021/11/20 05:03:50;;;;;;;32.87;14.30;;;9.40;1.00;;;;;;5008048;28;20420;-74
2021/11/20 05:06:18;;;;;;;35.03;15.27;;;9.40;1.00;;;;;;5005058;28;20450;-75
2021/11/20 05:09:00;;;;;;;28.70;14.13;;;9.40;1.00;;;;;;5007513;28;20465;-76
2021/11/20 05:11:28;;;;;;;23.70;14.27;;;9.40;1.00;;;;;;5007359;28;20435;-76
2021/11/20 05:17:24;;;;;;;32.50;14.67;;;9.30;1.00;;;;;;5013228;28;20470;-75
2021/11/20 05:19:54;;;;;;;34.60;15.13;;;9.40;1.00;;;;;;5010731;28;20448;-73
2021/11/20 05:22:24;;;;;;;29.60;15.60;;;9.40;1.00;;;;;;5006552;28;20891;-73
2021/11/20 05:24:50;;;;;;;33.50;15.43;;;9.40;1.00;;;;;;5013027;28;20448;-73
2021/11/20 05:27:16;;;;;;;37.70;15.47;;;9.40;1.00;;;;;;5013351;28;21275;-73
2021/11/20 05:29:52;;;;;;;25.77;14.57;;;9.40;1.00;;;;;;5013440;28;20443;-73
2021/11/20 05:32:24;;;;;;;34.27;15.83;;;9.30;1.00;;;;;;5013588;28;20169;-74
2021/11/20 05:34:54;;;;;;;35.10;14.70;;;9.40;1.00;;;;;;5012408;28;20784;-76
2021/11/20 05:37:20;;;;;;;27.10;14.80;;;9.40;1.00;;;;;;5010406;28;20431;-76
2021/11/20 05:40:03;;;;;;;31.37;14.83;;;9.40;1.00;;;;;;5017584;28;20414;-77
2021/11/20 05:42:38;;;;;;;37.27;15.60;;;9.40;1.00;;;;;;5015746;28;20895;-76
2021/11/20 05:45:06;;;;;;;32.33;14.50;;;9.40;1.00;;;;;;5010330;28;20402;-76
2021/11/20 05:47:38;;;;;;;33.80;15.00;;;9.40;1.00;;;;;;5017386;28;20962;-76
2021/11/20 05:50:07;;;;;;;33.17;14.40;;;9.40;1.00;;;;;;5016998;28;20444;-73
2021/11/20 05:52:36;;;;;;;32.13;15.20;;;9.40;1.00;;;;;;5017081;28;20412;-73
2021/11/20 05:55:04;;;;;;;32.10;15.40;;;9.40;1.00;;;;;;5016845;28;20476;-73
2021/11/20 05:57:29;;;;;;;29.47;14.33;;;9.40;1.00;;;;;;5016994;28;20430;-73
2021/11/20 06:00:00;;;;;;;28.23;14.50;;;9.50;1.00;;;;;;5017087;28;20408;-74
2021/11/20 06:02:26;;;;;;;25.87;13.80;;;;;;;;;;5003677;28;20259;-73
2021/11/20 06:04:54;;;;;;;32.77;15.10;;;9.50;1.00;;;;;;5009408;28;20542;-74
2021/11/20 06:07:20;;;;;;;30.10;15.20;;;;;;;;;;5004754;28;20452;-73
2021/11/20 06:09:46;;;;;;;29.10;14.10;;;9.50;1.00;;;;;;5003703;28;20500;-73
2021/11/20 06:12:25;;;;;;;37.57;15.40;;;9.50;1.00;;;;;;5016447;28;20888;-73
2021/11/20 06:14:51;;;;;;;28.63;14.40;;;9.50;1.00;;;;;;5012683;28;20721;-73
2021/11/20 06:17:17;;;;;;;35.60;15.27;;;9.50;1.00;;;;;;5007229;28;20491;-73
2021/11/20 06:19:43;;;;;;;32.23;14.40;;;9.40;1.00;;;;;;5012641;28;20434;-75
2021/11/20 06:25:48;;;;;;;31.17;13.47;;;9.40;1.00;;;;;;5009512;28;20796;-76
2021/11/20 06:28:14;;;;;;;34.73;15.83;;;9.50;1.00;;;;;;5008345;28;20534;-76
2021/11/20 06:34:02;;;;;;;23.30;12.77;;;9.40;1.00;;;;;;5011641;28;20399;-76
2021/11/20 06:36:30;;;;;;;22.23;13.13;;;9.50;1.00;;;;;;5013529;28;20440;-74
2021/11/20 06:39:00;;;;;;;36.83;14.47;;;9.50;1.00;;;;;;5012022;28;20432;-73
2021/11/20 06:41:37;;;;;;;29.10;13.83;;;;;;;;;;5007379;28;20434;-73
2021/11/20 06:44:12;;;;;;;32.17;14.20;;;9.50;1.00;;;;;;5012704;28;20833;-74
2021/11/20 06:46:38;;;;;;;31.93;14.53;;;9.50;1.00;;;;;;5015085;28;20924;-73
2021/11/20 06:49:05;;;;;;;30.60;13.23;;;9.40;1.00;;;;;;5014479;28;20503;-73
2021/11/20 06:51:36;;;;;;;32.07;14.23;;;9.40;1.00;;;;;;5015964;28;20435;-73
2021/11/20 06:54:02;;;;;;;26.70;13.73;;;9.50;1.00;;;;;;5015716;28;20454;-73
2021/11/20 06:56:30;;;;;;;31.67;13.70;;;9.40;1.00;;;;;;5020223;28;20416;-74
2021/11/20 06:59:13;;;;;;;35.60;15.03;;;9.50;1.00;;;;;;5002992;28;20840;-74
2021/11/20 07:01:42;;;;;;;25.70;13.13;;;9.50;1.00;;;;;;5007580;28;20425;-75
2021/11/20 07:04:11;;;;;;;25.73;13.10;;;9.50;1.00;;;;;;5010886;28;20412;-73
2021/11/20 07:06:44;;;;;;;26.33;13.33;;;9.50;1.00;;;;;;5014096;28;20423;-74
2021/11/20 07:09:13;;;;;;;27.47;13.37;;;9.50;1.00;;;;;;5011536;28;20453;-73
2021/11/20 07:11:42;;;;;;;28.37;12.57;;;9.60;1.00;;;;;;5012242;28;20423;-73
2021/11/20 07:14:08;;;;;;;26.70;12.97;;;9.60;1.00;;;;;;5010633;28;20412;-73
2021/11/20 07:16:35;;;;;;;24.33;12.40;;;9.60;1.00;;;;;;5010232;28;20424;-74
2021/11/20 07:19:01;;;;;;;29.27;13.03;;;9.70;1.00;;;;;;5015221;28;20455;-73
2021/11/20 07:21:36;;;;;;;29.77;13.53;;;9.70;1.00;;;;;;5015153;28;20534;-74
2021/11/20 07:24:06;;;;;;;28.97;12.57;;;9.70;1.00;;;;;;4999564;28;21056;-76
2021/11/20 07:26:36;;;;;;;24.00;11.73;;;9.70;1.00;;;;;;5015368;28;20440;-75
2021/11/20 07:29:47;;;;;;;21.57;11.43;;;9.70;1.00;;;;;;5014068;28;20470;-75
2021/11/20 07:32:18;;;;;;;26.57;12.10;;;9.70;1.00;;;;;;5010689;28;20470;-79
2021/11/20 07:34:48;;;;;;;17.93;10.57;;;9.70;1.00;;;;;;5015201;28;20435;-76
2021/11/20 07:37:18;;;;;;;24.27;12.73;;;9.80;1.00;;;;;;5015694;28;20400;-77
2021/11/20 07:39:54;;;;;;;29.30;11.30;;;9.80;1.00;;;;;;5014779;28;20422;-76
2021/11/20 07:42:24;;;;;;;23.37;11.83;;;9.80;1.00;;;;;;5015463;28;20423;-77
2021/11/20 07:45:02;;;;;;;23.47;12.77;;;9.80;1.00;;;;;;5015008;28;20416;-76
2021/11/20 07:47:29;;;;;;;24.80;11.53;;;9.90;1.00;;;;;;5014325;28;20494;-76
2021/11/20 07:50:00;;;;;;;18.10;11.43;;;9.80;1.00;;;;;;5015520;28;20470;-76
2021/11/20 07:52:25;;;;;;;26.60;10.27;;;9.90;1.00;;;;;;5015456;28;20427;-73
2021/11/20 07:54:52;;;;;;;25.03;11.70;;;9.90;1.00;;;;;;5018583;28;20426;-73
2021/11/20 07:57:18;;;;;;;27.30;11.47;;;9.90;1.00;;;;;;5015708;28;20183;-74
2021/11/20 07:59:44;;;;;;;22.27;11.10;;;9.90;1.00;;;;;;5008313;28;21132;-73
2021/11/20 08:02:10;;;;;;;23.47;11.23;;;10.00;1.00;;;;;;5010917;28;20227;-73
2021/11/20 08:04:38;;;;;;;23.50;11.13;;;10.00;1.00;;;;;;5008914;28;20165;-73
2021/11/20 08:07:05;;;;;;;23.83;11.07;;;10.00;1.00;;;;;;4999675;28;20547;-76
2021/11/20 08:09:32;;;;;;;21.00;11.00;;;10.10;1.00;;;;;;5009869;28;20480;-75
2021/11/20 08:11:59;;;;;;;22.60;10.53;;;10.20;1.00;;;;;;5014463;28;20440;-75
2021/11/20 08:14:59;;;;;;;16.80;9.33;;;10.10;1.00;;;;;;5014903;28;20404;-75
2021/11/20 08:17:25;;;;;;;17.37;9.97;;;10.10;1.00;;;;;;5008088;28;20507;-76
2021/11/20 08:19:54;;;;;;;20.77;10.57;;;10.30;1.00;;;;;;5014706;28;20515;-75
2021/11/20 08:22:24;;;;;;;18.60;10.43;;;10.20;1.00;;;;;;5014758;28;20177;-75
2021/11/20 08:24:49;;;;;;;20.77;11.07;;;10.30;1.00;;;;;;5004357;28;20539;-75
2021/11/20 08:28:05;;;;;;;19.57;10.87;;;10.30;1.00;;;;;;5014476;28;20848;-75
2021/11/20 08:30:53;;;;;;;23.10;10.13;;;10.30;1.00;;;;;;5007339;28;20211;-75
2021/11/20 08:33:25;;;;;;;20.67;10.97;;;10.30;1.00;;;;;;5013696;28;20502;-75
2021/11/20 08:35:55;;;;;;;18.20;10.00;;;10.30;1.00;;;;;;5007107;28;20829;-75
2021/11/20 08:38:25;;;;;;;27.63;10.40;;;10.30;1.00;;;;;;5014377;28;20760;-74
2021/11/20 08:40:52;;;;;;;18.33;10.50;;;10.30;1.00;;;;;;5002107;28;20800;-74
2021/11/20 08:43:20;;;;;;;21.13;9.77;;;10.40;1.00;;;;;;5013968;28;20403;-73
2021/11/20 08:45:50;;;;;;;22.07;9.63;;;10.40;1.00;;;;;;5004126;28;20420;-74
2021/11/20 08:48:20;;;;;;;16.10;8.93;;;;;;;;;;5013775;28;20471;-74
2021/11/20 08:50:56;;;;;;;17.20;9.87;;;10.50;1.00;;;;;;5013983;28;20407;-74
2021/11/20 08:53:24;;;;;;;18.63;9.33;;;10.60;1.00;;;;;;5012015;28;20415;-74
2021/11/20 08:55:51;;;;;;;24.90;9.77;;;10.70;1.00;;;;;;5013908;28;20462;-74
2021/11/20 08:58:18;;;;;;;14.90;9.20;;;10.70;1.00;;;;;;5012514;28;20726;-74
2021/11/20 09:01:03;;;;;;;23.80;9.90;;;10.70;1.00;;;;;;5008689;28;20439;-74
2021/11/20 09:03:58;;;;;;;16.40;8.97;;;10.80;1.00;;;;;;5002725;28;20427;-74
2021/11/20 09:06:24;;;;;;;18.53;9.20;;;;;;;;;;4952688;29;20516;-74
2021/11/20 09:08:52;;;;;;;21.77;9.17;;;10.80;1.00;;;;;;4952984;28;20609;-74
2021/11/20 09:11:23;;;;;;;17.77;9.70;;;10.90;1.00;;;;;;4952886;29;20563;-74
2021/11/20 09:14:28;;;;;;;16.90;9.33;;;10.90;1.00;;;;;;4951446;29;20435;-73
2021/11/20 09:16:59;;;;;;;17.27;9.07;;;11.00;1.00;;;;;;4952258;29;20477;-74
2021/11/20 09:19:30;;;;;;;17.63;9.27;;;11.00;1.00;;;;;;4951493;29;20764;-73
2021/11/20 09:21:58;;;;;;;16.40;8.47;;;11.10;1.00;;;;;;4952960;29;20453;-73
2021/11/20 09:24:33;;;;;;;14.90;9.20;;;11.10;1.00;;;;;;4952647;29;20441;-75
2021/11/20 09:27:00;;;;;;;16.97;9.27;;;11.30;1.00;;;;;;4953183;29;20450;-75
2021/11/20 09:29:30;;;;;;;16.60;9.20;;;11.30;1.00;;;;;;4946555;29;20554;-76
2021/11/20 09:32:00;;;;;;;18.83;8.43;;;11.50;1.00;;;;;;4953020;29;20432;-75
2021/11/20 09:34:30;;;;;;;17.00;8.63;;;11.50;1.00;;;;;;4953331;29;20817;-76
2021/11/20 09:36:57;;;;;;;16.97;9.13;;;11.70;1.00;;;;;;4951723;29;20792;-76
2021/11/20 09:39:27;;;;;;;13.37;8.80;;;11.80;1.00;;;;;;4951204;29;20442;-75
2021/11/20 09:42:26;;;;;;;14.90;8.90;;;11.80;1.00;;;;;;4942811;29;20434;-75
2021/11/20 09:45:12;;;;;;;16.90;8.47;;;11.80;1.00;;;;;;5009500;28;20440;-75
2021/11/20 09:47:56;;;;;;;15.60;8.63;;;11.80;1.00;;;;;;5006972;28;20454;-76
2021/11/20 09:51:07;;;;;;;12.97;8.50;;;11.80;1.00;;;;;;5012725;28;20435;-76
2021/11/20 09:53:54;;;;;;;14.93;8.07;;;11.90;1.00;;;;;;5013171;28;20431;-76
2021/11/20 09:56:27;;;;;;;32.23;9.80;;;12.00;1.00;;;;;;5011222;28;20459;-74
2021/11/20 09:58:58;;;;;;;14.43;8.30;;;12.10;1.00;;;;;;5013002;28;20416;-74
2021/11/20 10:01:44;;;;;;;16.80;8.57;;;12.20;1.00;;;;;;5010319;28;20477;-73
2021/11/20 10:04:26;;;;;;;18.17;8.90;;;12.20;1.00;;;;;;5002316;28;20523;-73
2021/11/20 10:07:14;;;;;;;15.57;8.10;;;12.30;1.00;;;;;;5006376;28;20455;-74
2021/11/20 10:09:54;;;;;;;13.77;8.00;;;12.40;1.00;;;;;;5005087;28;20914;-74
2021/11/20 10:12:35;;;;;;;13.40;8.20;;;12.40;1.00;;;;;;5012504;28;20423;-73
2021/11/20 10:15:25;;;;;;;14.80;8.10;;;12.50;1.00;;;;;;5012778;28;20837;-74
2021/11/20 10:17:51;;;;;;;16.80;9.43;;;12.60;1.00;;;;;;5005472;28;20446;-75
2021/11/20 10:20:45;;;;;;;19.37;9.63;;;12.60;1.00;;;;;;5012730;28;20879;-74
2021/11/20 10:23:37;;;;;;;13.60;8.30;;;12.60;1.00;;;;;;5016242;28;20189;-73
2021/11/20 10:26:34;;;;;;;14.80;8.00;;;12.70;1.00;;;;;;5004492;28;20573;-73
2021/11/20 10:29:25;;;;;;;18.33;7.53;;;12.80;1.00;;;;;;5011666;28;20442;-73
2021/11/20 10:32:20;;;;;;;17.97;8.47;;;12.90;1.00;;;;;;5012016;28;20457;-74
2021/11/20 10:35:03;;;;;;;15.30;7.97;;;;;;;;;;5009731;28;20420;-74
2021/11/20 10:37:42;;;;;;;15.27;7.43;;;13.00;1.00;;;;;;5006683;28;20424;-74
2021/11/20 10:40:34;;;;;;;12.60;7.70;;;13.10;1.00;;;;;;5013311;28;20406;-74
2021/11/20 10:43:38;;;;;;;14.40;7.40;;;13.30;1.00;;;;;;5014583;28;20996;-76
2021/11/20 10:46:21;;;;;;;15.47;8.23;;;13.40;1.00;;;;;;5015760;28;21190;-76
2021/11/20 10:49:24;;;;;;;10.53;7.30;;;13.40;1.00;;;;;;5010614;28;20525;-76
2021/11/20 10:52:27;;;;;;;12.87;7.10;;;13.40;1.00;;;;;;5016621;28;20466;-76
2021/11/20 10:55:47;;;;;;;11.90;6.70;;;13.40;1.00;;;;;;5013898;28;20416;-76
2021/11/20 10:58:30;;;;;;;17.80;8.03;;;13.40;1.00;;;;;;5012479;28;20403;-76
2021/11/20 11:01:11;;;;;;;14.13;7.87;;;13.40;1.00;;;;;;5003826;28;20399;-76
2021/11/20 11:03:46;;;;;;;11.33;6.83;;;13.30;1.00;;;;;;5011114;28;20432;-76
2021/11/20 11:06:44;;;;;;;14.97;7.57;;;13.40;1.00;;;;;;5015667;28;20408;-77
2021/11/20 11:09:19;;;;;;;11.20;6.83;;;13.40;1.00;;;;;;5001849;28;20451;-77
2021/11/20 11:12:23;;;;;;;11.03;7.20;;;13.40;1.00;;;;;;5011119;28;20813;-77
2021/11/20 11:15:00;;;;;;;14.80;7.53;;;13.50;1.00;;;;;;4995375;28;20444;-75
2021/11/20 11:17:48;;;;;;;19.20;7.43;;;13.50;1.00;;;;;;4994272;28;20440;-73
2021/11/20 11:20:35;;;;;;;14.17;8.10;;;13.40;1.00;;;;;;4993308;28;20437;-74
2021/11/20 11:23:23;;;;;;;16.87;8.00;;;13.50;1.00;;;;;;5006710;28;20390;-74
2021/11/20 11:26:05;;;;;;;13.87;8.20;;;13.50;1.00;;;;;;4992756;28;20432;-74
2021/11/20 11:29:26;;;;;;;10.97;6.90;;;13.60;1.00;;;;;;4994716;28;20482;-77
2021/11/20 11:32:29;;;;;;;13.20;8.07;;;13.60;1.00;;;;;;4968937;28;20862;-78
2021/11/20 11:35:32;;;;;;;14.50;7.80;;;13.60;1.00;;;;;;4972853;28;20469;-76
2021/11/20 11:38:24;;;;;;;11.53;7.83;;;13.50;1.00;;;;;;4968864;28;20445;-77
2021/11/20 11:41:31;;;;;;;22.00;7.60;;;13.50;1.00;;;;;;4955506;28;20422;-77
2021/11/20 11:44:41;;;;;;;15.67;7.73;;;13.50;1.00;;;;;;4980924;28;20927;-77
2021/11/20 11:47:34;;;;;;;13.90;7.70;;;13.50;1.00;;;;;;4965118;28;20464;-78
2021/11/20 11:50:32;;;;;;;14.03;8.07;;;13.60;1.00;;;;;;4966528;28;20436;-77
2021/11/20 11:53:35;;;;;;;13.20;7.60;;;13.60;1.00;;;;;;4954155;29;20434;-77
2021/11/20 11:56:26;;;;;;;14.93;7.97;;;13.50;1.00;;;;;;4953649;29;20845;-76
2021/11/20 11:59:08;;;;;;;13.47;7.60;;;13.50;1.00;;;;;;4953932;29;20434;-80
2021/11/20 12:02:17;;;;;;;17.80;8.37;;;13.50;1.00;;;;;;4954274;29;20949;-77
2021/11/20 12:05:32;;;;;;;13.00;7.50;;;13.70;1.00;;;;;;4953896;28;20438;-77
2021/11/20 12:08:13;;;;;;;15.90;8.00;;;13.70;1.00;;;;;;5006435;28;20464;-77
2021/11/20 12:11:16;;;;;;;11.20;7.33;;;13.80;1.00;;;;;;5012197;28;20436;-77
2021/11/20 12:13:52;;;;;;;16.67;8.13;;;14.00;1.00;;;;;;5011920;28;20462;-77
2021/11/20 12:16:30;;;;;;;13.37;8.60;;;14.00;1.00;;;;;;5013974;28;20511;-74
2021/11/20 12:19:17;;;;;;;18.07;8.17;;;14.10;1.00;;;;;;5007185;28;20428;-74
2021/11/20 12:21:59;;;;;;;13.07;7.67;;;14.20;1.00;;;;;;5007923;28;20382;-74
2021/11/20 12:24:42;;;;;;;11.77;7.60;;;14.20;1.00;;;;;;5014098;28;20408;-74
2021/11/20 12:27:36;;;;;;;15.50;8.30;;;14.30;1.00;;;;;;5014107;28;20581;-74
2021/11/20 12:30:08;;;;;;;19.00;8.17;;;14.30;1.00;;;;;;5013978;28;20390;-74
2021/11/20 12:32:45;;;;;;;16.53;8.60;;;14.30;1.00;;;;;;5014177;28;20917;-77
2021/11/20 12:35:32;;;;;;;14.40;7.73;;;14.20;1.00;;;;;;5012309;28;20415;-77
2021/11/20 12:38:36;;;;;;;16.73;8.00;;;14.20;1.00;;;;;;5013845;28;20406;-77
2021/11/20 12:42:04;;;;;;;10.73;7.27;;;14.20;1.00;;;;;;5014001;28;20397;-77
2021/11/20 12:44:53;;;;;;;20.90;8.03;;;14.10;1.00;;;;;;4933845;29;20393;-76
2021/11/20 12:47:59;;;;;;;14.77;8.33;;;14.10;1.00;;;;;;4934006;29;20374;-73
2021/11/20 12:51:21;;;;;;;13.13;7.40;;;14.10;1.00;;;;;;4924286;29;20431;-76
2021/11/20 12:53:49;;;;;;;12.83;7.67;;;14.00;1.00;;;;;;4887718;29;20407;-73
2021/11/20 12:56:18;;;;;;;20.23;8.73;;;14.00;1.00;;;;;;4895554;29;20420;-73
2021/11/20 12:58:55;;;;;;;12.40;7.87;;;13.90;1.00;;;;;;4895732;29;20408;-74
2021/11/20 13:01:26;;;;;;;12.97;7.77;;;13.90;1.00;;;;;;4886089;29;20413;-74
2021/11/20 13:04:22;;;;;;;12.37;7.50;;;13.90;1.00;;;;;;4893599;29;20457;-74
2021/11/20 13:06:57;;;;;;;14.60;8.67;;;14.00;1.00;;;;;;4893708;29;20408;-74
2021/11/20 13:09:54;;;;;;;12.00;6.83;;;13.90;1.00;;;;;;4888688;29;20887;-74
2021/11/20 13:12:35;;;;;;;14.03;8.80;;;13.90;1.00;;;;;;4883778;29;20416;-74
2021/11/20 13:15:15;;;;;;;15.93;9.20;;;13.80;1.00;;;;;;4893732;29;20437;-73
2021/11/20 13:17:58;;;;;;;17.13;8.83;;;13.60;1.00;;;;;;4895514;29;20821;-77
2021/11/20 13:21:05;;;;;;;9.83;6.20;;;13.60;1.00;;;;;;4883695;29;20608;-77
2021/11/20 13:27:31;;;;;;;9.33;6.20;;;13.60;1.00;;;;;;4968248;28;20459;-81
2021/11/20 13:30:21;;;;;;;9.90;5.90;;;13.40;1.00;;;;;;5009167;28;20469;-77
2021/11/20 13:33:17;;;;;;;11.83;6.30;;;13.40;1.00;;;;;;5005327;28;20416;-77
2021/11/20 13:36:07;;;;;;;14.00;7.47;;;13.40;1.00;;;;;;5013510;28;20401;-76
2021/11/20 13:38:33;;;;;;;16.40;8.43;;;13.30;1.00;;;;;;5013390;28;20410;-74
2021/11/20 13:41:24;;;;;;;14.90;8.60;;;13.30;1.00;;;;;;5013400;28;20404;-81
2021/11/20 13:44:00;;;;;;;13.93;8.13;;;13.40;1.00;;;;;;5010357;28;20532;-78
2021/11/20 13:46:30;;;;;;;20.37;7.87;;;13.50;1.00;;;;;;5008233;28;20426;-76
2021/11/20 13:48:57;;;;;;;12.53;7.03;;;13.40;1.00;;;;;;5012132;28;20842;-76
2021/11/20 13:51:28;;;;;;;11.03;6.83;;;13.40;1.00;;;;;;5000981;28;20425;-75
2021/11/20 13:53:57;;;;;;;13.30;7.67;;;13.50;1.00;;;;;;4998778;28;20428;-74
2021/11/20 13:56:25;;;;;;;19.50;9.23;;;13.50;1.00;;;;;;5013884;28;20451;-77
2021/11/20 13:59:03;;;;;;;19.30;8.57;;;;;;;;;;5007533;28;20432;-78
2021/11/20 14:01:42;;;;;;;14.70;8.23;;;13.50;1.00;;;;;;4999821;28;20411;-80
2021/11/20 14:07:34;;;;;;;13.50;7.40;;;13.30;1.00;;;;;;5013926;28;20430;-77
2021/11/20 14:10:02;;;;;;;17.57;7.70;;;13.30;1.00;;;;;;5017185;28;20423;-80
2021/11/20 14:13:18;;;;;;;15.40;8.40;;;13.20;1.00;;;;;;5016922;28;20416;-78
2021/11/20 14:15:49;;;;;;;15.23;9.07;;;13.20;1.00;;;;;;5003573;28;20933;-78